Terminal Aerodrome Forecast
Issued by NWS

Home | Current Version | Previous Version | Text Only | Print | Product List | Glossary Off
Versions: 1 2 3 4 5 6 7 8 9 10 11 12 13 14 15 16 17

712
FTUS43 KBIS 200529
TAFMOT
TAF
KMOT 200529Z 2006/2106 29009KT P6SM FEW120 SCT250
     FM210100 25005KT P6SM FEW130 SCT200
     FM210200 19004KT P6SM FEW130 SCT200=

USA.gov is the U.S. government's official web portal to all federal, state and local government web resources and services.